Time;durP1;ratioP1;P1;durP2;ratioP2;P2;SDS_P1;SDS_P2;PMS_P1;PMS_P2;Temp;Humidity;BMP_temperature;BMP_pressure;BME280_temperature;BME280_humidity;BME280_pressure;Samples;Min_cycle;Max_cycle;Signal;HPM_P1;HPM_P2
2024/03/09 00:00:48;;;;;;;24.20;16.60;;;;;;;4.45;100.00;97446.41;6337506;28;20736;-54
2024/03/09 00:03:51;;;;;;;22.43;16.47;;;;;;;4.54;100.00;97449.63;6322297;28;20604;-55
2024/03/09 00:06:53;;;;;;;22.77;16.37;;;;;;;4.51;100.00;97450.03;6318879;28;20267;-50
2024/03/09 00:09:56;;;;;;;23.67;17.20;;;;;;;4.43;100.00;97445.78;6332911;28;20523;-56
2024/03/09 00:12:59;;;;;;;22.03;16.47;;;;;;;4.46;100.00;97444.56;6332952;27;20194;-49
2024/03/09 00:16:03;;;;;;;20.07;14.93;;;;;;;4.36;100.00;97437.91;6313449;28;20339;-54
2024/03/09 00:19:07;;;;;;;21.93;16.40;;;;;;;4.44;100.00;97436.88;6332515;28;20195;-53
2024/03/09 00:22:09;;;;;;;22.07;14.60;;;;;;;4.49;100.00;97434.44;6332180;28;20230;-57
2024/03/09 00:25:12;;;;;;;24.30;16.80;;;;;;;4.38;100.00;97433.25;6324795;28;20808;-55
2024/03/09 00:28:15;;;;;;;25.80;17.33;;;;;;;4.32;100.00;97415.59;6336394;28;20186;-53
2024/03/09 00:31:17;;;;;;;23.67;16.00;;;;;;;4.40;100.00;97419.84;6334631;28;20685;-52
2024/03/09 00:34:19;;;;;;;24.07;16.00;;;;;;;4.38;100.00;97417.44;6335252;28;20662;-53
2024/03/09 00:37:23;;;;;;;23.03;15.83;;;;;;;4.40;100.00;97419.84;6330158;28;20843;-54
2024/03/09 00:40:28;;;;;;;25.30;16.20;;;;;;;4.39;100.00;97407.69;6331452;28;20636;-53
2024/03/09 00:43:31;;;;;;;23.00;15.00;;;;;;;4.36;100.00;97400.19;6330621;28;20198;-53
2024/03/09 00:46:36;;;;;;;27.23;16.80;;;;;;;4.34;100.00;97399.59;6330482;28;20565;-53
2024/03/09 00:49:40;;;;;;;24.60;15.70;;;;;;;4.26;100.00;97389.28;6328275;28;20270;-57
2024/03/09 00:52:46;;;;;;;24.60;16.43;;;;;;;4.29;100.00;97383.59;6317544;28;20289;-56
2024/03/09 00:55:48;;;;;;;22.57;15.83;;;;;;;4.11;100.00;97360.53;6339306;28;20201;-56
2024/03/09 00:58:55;;;;;;;25.43;17.03;;;;;;;4.23;100.00;97379.94;6334697;28;20363;-52
2024/03/09 01:02:01;;;;;;;23.87;16.60;;;;;;;4.21;100.00;97371.44;6324512;28;20199;-57
2024/03/09 01:05:04;;;;;;;25.30;16.73;;;;;;;4.23;100.00;97371.22;6331995;28;20193;-52
2024/03/09 01:08:06;;;;;;;26.17;17.50;;;;;;;4.24;100.00;97354.41;6311286;28;20662;-56
2024/03/09 01:11:08;;;;;;;26.83;16.90;;;;;;;4.19;100.00;97357.66;6331690;28;20570;-56
2024/03/09 01:14:11;;;;;;;25.07;16.47;;;;;;;4.13;100.00;97358.47;6330820;28;20197;-52
2024/03/09 01:17:17;;;;;;;22.77;16.80;;;;;;;4.12;100.00;97343.69;6332648;28;20205;-53
2024/03/09 01:20:20;;;;;;;24.17;17.27;;;;;;;4.27;100.00;97340.78;6322686;28;20367;-56
2024/03/09 01:23:22;;;;;;;25.03;17.47;;;;;;;4.27;100.00;97331.03;6319647;28;20183;-56
2024/03/09 01:26:24;;;;;;;24.47;17.17;;;;;;;4.15;100.00;97306.38;6320008;28;20203;-53
2024/03/09 01:29:26;;;;;;;24.77;17.50;;;;;;;4.14;100.00;97324.03;6328774;28;20659;-55
2024/03/09 01:32:28;;;;;;;26.33;17.27;;;;;;;4.14;100.00;97316.13;6330268;28;20670;-49
2024/03/09 01:35:31;;;;;;;22.70;15.63;;;;;;;4.14;100.00;97304.75;6334699;28;20202;-53
2024/03/09 01:38:33;;;;;;;25.37;17.17;;;;;;;4.04;100.00;97302.56;6329436;28;20248;-51
2024/03/09 01:41:35;;;;;;;23.50;16.60;;;;;;;4.08;100.00;97302.94;6330808;28;20647;-52
2024/03/09 01:44:37;;;;;;;23.27;16.83;;;;;;;4.04;100.00;97297.31;6332919;28;20189;-56
2024/03/09 01:47:41;;;;;;;24.07;16.07;;;;;;;4.01;100.00;97295.06;6308958;28;20189;-53
2024/03/09 01:50:44;;;;;;;28.97;18.60;;;;;;;4.12;100.00;97285.69;6329185;28;20697;-51
2024/03/09 01:53:53;;;;;;;26.80;17.73;;;;;;;4.10;100.00;97295.66;6327129;28;20198;-53
2024/03/09 01:56:57;;;;;;;24.37;16.53;;;;;;;4.05;100.00;97293.63;6332696;28;20209;-50
2024/03/09 02:00:00;;;;;;;29.80;19.10;;;;;;;4.05;100.00;97284.94;6322141;28;20258;-55
2024/03/09 02:03:11;;;;;;;26.13;17.50;;;;;;;4.00;100.00;97279.47;6326344;28;20194;-55
2024/03/09 02:06:14;;;;;;;25.87;18.20;;;;;;;3.93;100.00;97281.31;6329072;28;20206;-54
2024/03/09 02:09:18;;;;;;;25.87;17.40;;;;;;;3.94;100.00;97280.28;6330470;28;20185;-53
2024/03/09 02:12:23;;;;;;;27.40;18.17;;;;;;;3.96;100.00;97273.00;6331985;28;20197;-52
2024/03/09 02:15:29;;;;;;;26.33;18.03;;;;;;;4.05;100.00;97259.38;6328461;28;20881;-52
2024/03/09 02:18:33;;;;;;;24.20;16.10;;;;;;;4.06;100.00;97273.38;6301129;28;20212;-53
2024/03/09 02:21:35;;;;;;;26.53;18.80;;;;;;;3.94;100.00;97259.22;6335199;28;20238;-54
2024/03/09 02:24:45;;;;;;;26.80;18.30;;;;;;;3.99;100.00;97270.78;6324536;28;20955;-54
2024/03/09 02:27:47;;;;;;;22.83;16.93;;;;;;;4.10;100.00;97264.03;6324294;28;20215;-55
2024/03/09 02:30:49;;;;;;;21.13;16.30;;;;;;;4.10;100.00;97264.81;6329920;28;20575;-56
2024/03/09 02:33:55;;;;;;;26.77;17.03;;;;;;;4.11;100.00;97265.63;6321271;28;20199;-56
2024/03/09 02:36:58;;;;;;;26.50;17.43;;;;;;;3.98;100.00;97240.13;6312369;28;20300;-53
2024/03/09 02:40:00;;;;;;;25.10;17.27;;;;;;;4.25;100.00;97256.63;6331800;28;20289;-53
2024/03/09 02:43:11;;;;;;;24.87;17.20;;;;;;;4.09;100.00;97255.31;6340823;28;20190;-54
2024/03/09 02:46:18;;;;;;;25.37;17.27;;;;;;;4.13;100.00;97255.66;6341166;28;20747;-54
2024/03/09 02:49:20;;;;;;;23.83;16.67;;;;;;;4.10;100.00;97256.91;6336877;28;20182;-53
2024/03/09 02:52:23;;;;;;;23.97;15.97;;;;;;;4.13;100.00;97256.47;6332668;28;20201;-55
2024/03/09 02:55:27;;;;;;;23.67;17.10;;;;;;;4.18;100.00;97250.56;6311550;28;20224;-56
2024/03/09 02:58:29;;;;;;;24.17;16.97;;;;;;;4.18;100.00;97244.50;6329098;28;20848;-56
2024/03/09 03:01:32;;;;;;;26.13;17.00;;;;;;;4.25;100.00;97255.81;6331520;28;20197;-52
2024/03/09 03:04:34;;;;;;;23.80;16.57;;;;;;;4.21;100.00;97252.81;6334341;28;20635;-50
2024/03/09 03:07:36;;;;;;;23.07;16.00;;;;;;;4.13;100.00;97250.41;6329140;28;20295;-53
2024/03/09 03:10:40;;;;;;;24.53;17.00;;;;;;;4.16;100.00;97246.56;6328139;28;20205;-50
2024/03/09 03:13:45;;;;;;;22.63;16.77;;;;;;;4.20;100.00;97221.38;6324801;28;20192;-52
2024/03/09 03:16:47;;;;;;;29.27;17.80;;;;;;;4.21;100.00;97241.44;6330192;28;20315;-55
2024/03/09 03:19:49;;;;;;;25.37;17.00;;;;;;;4.05;100.00;97203.22;6341050;28;20305;-54
2024/03/09 03:22:52;;;;;;;24.83;16.57;;;;;;;4.24;100.00;97251.59;6312846;28;20201;-56
2024/03/09 03:25:54;;;;;;;23.20;17.17;;;;;;;4.22;100.00;97249.13;6325262;28;20201;-53
2024/03/09 03:28:57;;;;;;;26.07;16.13;;;;;;;4.23;100.00;97234.94;6314251;28;20189;-53
2024/03/09 03:32:01;;;;;;;24.90;17.43;;;;;;;4.33;100.00;97242.38;6315412;28;20562;-53
2024/03/09 03:35:04;;;;;;;22.70;16.57;;;;;;;4.15;100.00;97222.03;6323744;28;20675;-51
2024/03/09 03:38:06;;;;;;;24.70;17.60;;;;;;;4.21;100.00;97233.53;6337799;28;20261;-54
2024/03/09 03:41:10;;;;;;;25.23;17.90;;;;;;;4.18;100.00;97224.22;6342300;28;20765;-56
2024/03/09 03:44:14;;;;;;;23.67;17.77;;;;;;;4.22;100.00;97225.41;6327334;28;20202;-55
2024/03/09 03:47:16;;;;;;;26.17;16.23;;;;;;;4.27;100.00;97233.50;6328414;28;20202;-57
2024/03/09 03:50:18;;;;;;;25.00;17.80;;;;;;;4.25;100.00;97227.63;6329474;28;20194;-53
2024/03/09 03:53:20;;;;;;;26.20;17.83;;;;;;;4.20;100.00;97226.66;6334079;28;20182;-55
2024/03/09 03:56:24;;;;;;;26.47;17.77;;;;;;;4.24;100.00;97217.31;6332161;28;20643;-55
2024/03/09 03:59:27;;;;;;;25.80;18.60;;;;;;;4.24;100.00;97215.47;6329695;28;20200;-50
2024/03/09 04:02:33;;;;;;;27.13;18.70;;;;;;;4.03;100.00;97192.06;6336317;28;20685;-54
2024/03/09 04:05:36;;;;;;;24.80;17.40;;;;;;;4.13;100.00;97219.56;6335799;28;20714;-54
2024/03/09 04:08:38;;;;;;;27.37;18.13;;;;;;;4.17;100.00;97224.44;6340781;28;20620;-49
2024/03/09 04:11:41;;;;;;;28.10;18.30;;;;;;;4.17;100.00;97216.53;6321320;28;20210;-50
2024/03/09 04:14:43;;;;;;;26.20;17.83;;;;;;;4.30;100.00;97217.25;6331943;28;20242;-55
2024/03/09 04:17:45;;;;;;;27.03;18.43;;;;;;;4.35;100.00;97206.88;6323414;28;20218;-55
2024/03/09 04:20:48;;;;;;;27.60;19.13;;;;;;;4.34;100.00;97207.09;6331029;28;20312;-56
2024/03/09 04:23:50;;;;;;;30.27;19.17;;;;;;;4.33;100.00;97205.47;6329536;28;20702;-54
2024/03/09 04:26:52;;;;;;;26.27;18.77;;;;;;;4.26;100.00;97216.06;6319570;28;20271;-54
2024/03/09 04:29:55;;;;;;;27.47;18.77;;;;;;;4.34;100.00;97205.28;6335155;28;20197;-53
2024/03/09 04:33:00;;;;;;;26.47;18.57;;;;;;;4.26;100.00;97202.06;6338420;28;20189;-55
2024/03/09 04:36:06;;;;;;;28.77;18.97;;;;;;;4.03;100.00;97182.34;6340772;28;20189;-57
2024/03/09 04:39:10;;;;;;;28.07;18.50;;;;;;;4.23;100.00;97203.28;6332667;28;20319;-49
2024/03/09 04:42:13;;;;;;;30.70;20.20;;;;;;;4.21;100.00;97210.63;6321808;28;20237;-53
2024/03/09 04:45:24;;;;;;;30.80;20.53;;;;;;;4.22;100.00;97201.69;6338203;28;20565;-53
2024/03/09 04:48:26;;;;;;;29.87;19.87;;;;;;;4.32;100.00;97201.22;6335152;28;20184;-56
2024/03/09 04:51:29;;;;;;;25.47;17.90;;;;;;;4.20;100.00;97198.47;6332523;28;20206;-51
2024/03/09 04:54:31;;;;;;;27.77;18.80;;;;;;;4.20;100.00;97193.19;6333454;28;20644;-55
2024/03/09 04:57:38;;;;;;;29.10;19.53;;;;;;;4.22;100.00;97190.34;6328341;28;20236;-57
2024/03/09 05:00:41;;;;;;;30.03;19.03;;;;;;;4.19;100.00;97190.75;6322374;28;20197;-49
2024/03/09 05:03:43;;;;;;;30.17;19.10;;;;;;;4.04;100.00;97156.78;6320429;28;20199;-52
2024/03/09 05:06:48;;;;;;;30.47;20.37;;;;;;;4.23;100.00;97181.41;6309839;28;20239;-53
2024/03/09 05:09:50;;;;;;;26.63;19.17;;;;;;;3.99;100.00;97148.72;6326686;28;20193;-53
2024/03/09 05:12:56;;;;;;;30.07;19.73;;;;;;;4.17;100.00;97179.63;6326353;28;20200;-55
2024/03/09 05:15:58;;;;;;;27.20;19.13;;;;;;;4.23;100.00;97181.41;6332890;28;20745;-54
2024/03/09 05:19:00;;;;;;;28.87;18.97;;;;;;;4.13;100.00;97184.50;6333100;28;20673;-52
2024/03/09 05:22:02;;;;;;;32.90;20.23;;;;;;;4.20;100.00;97184.47;6330386;28;20244;-50
2024/03/09 05:25:12;;;;;;;31.23;20.53;;;;;;;4.16;100.00;97175.38;6331950;28;20185;-52
2024/03/09 05:28:15;;;;;;;28.63;19.73;;;;;;;4.01;100.00;97154.59;6322805;28;20194;-56
2024/03/09 05:31:30;;;;;;;26.70;18.87;;;;;;;3.95;100.00;97147.53;6308044;28;20707;-50
2024/03/09 05:34:37;;;;;;;30.87;20.57;;;;;;;4.12;100.00;97185.53;6325392;28;20569;-53
2024/03/09 05:37:42;;;;;;;33.70;21.60;;;;;;;4.11;100.00;97170.75;6331641;28;20747;-53
2024/03/09 05:40:44;;;;;;;31.87;20.43;;;;;;;3.96;100.00;97142.06;6329486;28;20188;-56
2024/03/09 05:43:47;;;;;;;31.57;20.73;;;;;;;4.09;100.00;97163.06;6326978;28;20279;-51
2024/03/09 05:46:50;;;;;;;29.73;20.50;;;;;;;4.12;100.00;97174.97;6311098;28;20202;-54
2024/03/09 05:49:52;;;;;;;27.43;19.50;;;;;;;4.23;100.00;97166.38;6330135;28;20187;-55
2024/03/09 05:52:59;;;;;;;29.37;20.30;;;;;;;4.14;100.00;97172.97;6328095;28;20207;-54
2024/03/09 05:56:03;;;;;;;29.10;20.43;;;;;;;4.26;100.00;97175.72;6324127;28;20191;-52
2024/03/09 05:59:07;;;;;;;30.97;20.33;;;;;;;4.21;100.00;97186.09;6321261;28;20203;-55
2024/03/09 06:02:09;;;;;;;28.07;19.80;;;;;;;4.35;100.00;97187.63;6322619;28;20725;-54
2024/03/09 06:05:13;;;;;;;29.30;19.93;;;;;;;4.27;100.00;97187.88;6331362;28;20221;-54
2024/03/09 06:08:16;;;;;;;28.83;20.00;;;;;;;4.35;100.00;97188.41;6331784;28;20201;-55
2024/03/09 06:11:18;;;;;;;27.77;21.47;;;;;;;4.27;100.00;97172.03;6332003;28;20189;-56
2024/03/09 06:14:22;;;;;;;29.57;20.50;;;;;;;4.33;100.00;97181.72;6336851;28;20762;-50
2024/03/09 06:17:25;;;;;;;25.57;19.40;;;;;;;4.43;100.00;97182.06;6336021;28;20194;-53
2024/03/09 06:20:28;;;;;;;30.63;20.43;;;;;;;4.45;100.00;97187.94;6338865;28;20229;-56
2024/03/09 06:23:31;;;;;;;28.50;20.40;;;;;;;4.35;100.00;97182.34;6337944;28;20276;-53
2024/03/09 06:26:34;;;;;;;28.40;20.03;;;;;;;4.31;100.00;97178.50;6324506;28;20201;-54
2024/03/09 06:29:37;;;;;;;31.20;20.90;;;;;;;4.44;100.00;97180.25;6317174;28;20190;-55
2024/03/09 06:32:39;;;;;;;30.63;20.93;;;;;;;4.40;100.00;97190.41;6332647;28;20679;-56
2024/03/09 06:35:42;;;;;;;33.60;22.87;;;;;;;4.40;100.00;97182.50;6334141;28;20223;-55
2024/03/09 06:38:48;;;;;;;30.63;20.27;;;;;;;4.33;100.00;97187.81;6335749;28;20201;-56
2024/03/09 06:41:52;;;;;;;30.40;21.33;;;;;;;4.51;100.00;97179.16;6334113;28;20185;-57
2024/03/09 06:44:54;;;;;;;30.43;22.03;;;;;;;4.45;100.00;97185.31;6332463;28;20197;-52
2024/03/09 06:47:57;;;;;;;31.63;21.43;;;;;;;4.47;100.00;97170.06;6329101;28;20186;-50
2024/03/09 06:51:00;;;;;;;29.13;20.93;;;;;;;4.52;100.00;97182.59;6339536;28;20197;-54
2024/03/09 06:54:03;;;;;;;32.60;22.20;;;;;;;4.46;100.00;97157.09;6337211;28;20193;-55
2024/03/09 06:57:05;;;;;;;32.13;22.53;;;;;;;4.61;100.00;97174.22;6329264;28;20197;-55
2024/03/09 07:00:14;;;;;;;30.27;21.50;;;;;;;4.72;100.00;97172.69;6334503;28;20209;-51
2024/03/09 07:03:16;;;;;;;30.63;20.47;;;;;;;4.74;100.00;97162.75;6333046;28;20675;-55
2024/03/09 07:06:18;;;;;;;26.87;19.70;;;;;;;4.78;100.00;97166.56;6333364;28;20221;-55
2024/03/09 07:09:21;;;;;;;28.13;19.33;;;;;;;4.87;100.00;97169.72;6335399;28;20179;-52
2024/03/09 07:12:23;;;;;;;26.23;18.87;;;;;;;4.96;100.00;97159.69;6331278;28;20195;-56
2024/03/09 07:15:28;;;;;;;26.03;18.60;;;;;;;5.03;100.00;97155.16;6337752;28;20195;-54
2024/03/09 07:18:34;;;;;;;24.53;18.63;;;;;;;5.10;100.00;97150.59;6341162;28;20222;-51
2024/03/09 07:21:36;;;;;;;24.13;17.40;;;;;;;5.20;100.00;97166.75;6337217;28;20235;-56
2024/03/09 07:24:38;;;;;;;23.83;18.57;;;;;;;5.21;100.00;97120.00;6337744;28;20197;-49
2024/03/09 07:27:41;;;;;;;22.00;16.50;;;;;;;5.46;100.00;97159.53;6315470;28;20195;-52
2024/03/09 07:30:46;;;;;;;21.13;16.30;;;;;;;5.49;100.00;97151.97;6321377;28;20245;-50
2024/03/09 07:33:50;;;;;;;24.70;17.73;;;;;;;5.55;100.00;97164.28;6337308;28;20224;-53
2024/03/09 07:36:55;;;;;;;21.90;16.97;;;;;;;5.79;100.00;97156.47;6329926;28;20205;-50
2024/03/09 07:39:57;;;;;;;21.77;16.57;;;;;;;5.83;100.00;97147.88;6334764;28;20207;-55
2024/03/09 07:42:59;;;;;;;23.07;16.90;;;;;;;6.00;100.00;97169.22;6329580;28;20201;-51
2024/03/09 07:46:04;;;;;;;20.87;14.77;;;;;;;6.11;99.53;97147.31;6337187;28;20195;-55
2024/03/09 07:49:07;;;;;;;19.53;15.23;;;;;;;6.21;100.00;97152.06;6339085;28;20184;-55
2024/03/09 07:52:09;;;;;;;20.10;15.13;;;;;;;6.29;98.18;97156.19;6321905;28;21010;-51
2024/03/09 07:55:15;;;;;;;18.80;14.80;;;;;;;6.44;97.42;97157.38;6332764;28;20200;-48
2024/03/09 07:58:18;;;;;;;20.87;15.37;;;;;;;6.60;97.17;97155.06;6335389;28;20534;-56
2024/03/09 08:01:28;;;;;;;19.80;15.00;;;;;;;6.78;94.96;97147.03;6334220;28;20278;-49
2024/03/09 08:04:30;;;;;;;15.63;12.73;;;;;;;6.71;95.08;97163.03;6332349;28;20745;-55
2024/03/09 08:07:35;;;;;;;17.23;13.93;;;;;;;6.67;93.54;97158.44;6296238;28;20620;-55
2024/03/09 08:10:39;;;;;;;16.83;12.57;;;;;;;6.58;94.47;97146.56;6333645;28;20184;-50
2024/03/09 08:13:43;;;;;;;17.47;13.80;;;;;;;6.62;95.26;97147.72;6337450;28;20361;-53
2024/03/09 08:16:45;;;;;;;18.97;14.97;;;;;;;6.70;93.75;97164.09;6323411;28;20297;-55
2024/03/09 08:19:48;;;;;;;19.43;14.70;;;;;;;6.75;92.82;97160.75;6304907;28;20230;-52
2024/03/09 08:22:51;;;;;;;17.93;13.83;;;;;;;6.79;93.03;97175.13;6330472;28;20192;-50
2024/03/09 08:25:53;;;;;;;20.73;14.80;;;;;;;6.86;93.54;97167.09;6336179;28;20203;-51
2024/03/09 08:28:55;;;;;;;18.33;14.87;;;;;;;6.91;91.52;97161.91;6330889;28;20278;-54
2024/03/09 08:31:59;;;;;;;19.83;14.13;;;;;;;6.84;91.93;97140.81;6332545;28;20561;-55
2024/03/09 08:35:08;;;;;;;20.27;15.93;;;;;;;7.00;90.81;97165.00;6332652;28;20226;-50
2024/03/09 08:38:13;;;;;;;20.27;15.90;;;;;;;7.10;93.10;97165.22;6324248;28;20220;-53
2024/03/09 08:41:17;;;;;;;20.83;15.33;;;;;;;7.25;91.90;97176.16;6326756;28;20197;-55
2024/03/09 08:44:19;;;;;;;19.73;16.13;;;;;;;7.41;89.15;97167.47;6335184;28;20199;-55
2024/03/09 08:47:22;;;;;;;20.13;15.03;;;;;;;7.67;88.11;97167.97;6329262;28;20669;-52
2024/03/09 08:50:25;;;;;;;20.37;14.97;;;;;;;7.80;88.96;97140.38;6329723;28;20197;-55
2024/03/09 08:53:28;;;;;;;19.97;15.37;;;;;;;8.13;84.23;97167.00;6313739;28;20198;-53
2024/03/09 08:56:31;;;;;;;20.30;15.80;;;;;;;8.18;84.32;97156.47;6331627;28;20204;-55
2024/03/09 08:59:36;;;;;;;20.40;15.50;;;;;;;8.21;84.08;97149.88;6320580;28;20202;-55
2024/03/09 09:02:40;;;;;;;20.90;15.50;;;;;;;8.26;82.70;97161.38;6327328;28;20717;-55
2024/03/09 09:05:42;;;;;;;24.97;16.20;;;;;;;8.39;85.38;97162.94;6325779;28;20286;-51
2024/03/09 09:08:44;;;;;;;19.17;15.53;;;;;;;8.39;84.70;97162.16;6335969;28;20280;-53
2024/03/09 09:11:48;;;;;;;23.47;17.53;;;;;;;8.12;83.78;97162.72;6333915;28;20465;-48
2024/03/09 09:14:50;;;;;;;22.10;16.73;;;;;;;8.16;84.87;97153.22;6332043;28;20201;-52
2024/03/09 09:17:55;;;;;;;21.07;15.70;;;;;;;8.22;83.19;97162.09;6338307;28;20189;-55
2024/03/09 09:20:57;;;;;;;21.10;17.03;;;;;;;8.08;85.75;97139.53;6335243;28;20237;-54
2024/03/09 09:24:02;;;;;;;21.87;17.00;;;;;;;8.09;85.14;97160.56;6332149;28;20415;-53
2024/03/09 09:27:04;;;;;;;21.87;17.43;;;;;;;8.02;86.66;97159.88;6326815;28;20557;-53
2024/03/09 09:30:08;;;;;;;22.17;16.80;;;;;;;8.28;84.86;97137.25;6310545;28;20223;-50
2024/03/09 09:33:15;;;;;;;23.43;17.97;;;;;;;8.31;83.21;97168.63;6331163;28;20196;-54
2024/03/09 09:36:19;;;;;;;22.73;17.70;;;;;;;8.24;85.18;97160.81;6321805;28;20193;-55
2024/03/09 09:39:25;;;;;;;23.50;17.87;;;;;;;8.38;84.13;97156.03;6337514;28;20600;-51
2024/03/09 09:42:30;;;;;;;25.30;18.70;;;;;;;8.41;83.67;97149.44;6340079;28;20863;-53
2024/03/09 09:45:37;;;;;;;23.73;18.07;;;;;;;8.58;85.77;97150.25;6319865;28;20193;-51
2024/03/09 09:48:40;;;;;;;25.23;18.97;;;;;;;8.76;84.15;97139.34;6335175;28;20181;-55
2024/03/09 09:51:43;;;;;;;21.03;15.60;;;;;;;8.90;83.30;97144.34;6328857;28;20197;-55
2024/03/09 09:54:54;;;;;;;22.30;17.00;;;;;;;9.09;79.37;97137.69;6329017;28;20201;-55
2024/03/09 09:57:58;;;;;;;21.50;16.93;;;;;;;9.25;81.12;97146.69;6326657;28;20223;-55
2024/03/09 10:01:00;;;;;;;22.50;17.37;;;;;;;9.20;78.97;97141.28;6318249;28;20743;-53
2024/03/09 10:04:04;;;;;;;22.13;16.93;;;;;;;9.17;81.11;97152.44;6337486;28;20215;-49
2024/03/09 10:07:08;;;;;;;24.63;18.53;;;;;;;9.64;78.77;97146.63;6339923;28;20783;-52
2024/03/09 10:10:13;;;;;;;23.13;16.60;;;;;;;9.86;75.14;97154.59;6328803;28;20560;-50
2024/03/09 10:13:17;;;;;;;19.30;15.37;;;;;;;9.67;74.22;97143.47;6327997;28;20324;-52
2024/03/09 10:16:29;;;;;;;23.27;16.83;;;;;;;9.32;75.36;97147.31;6326623;28;20185;-54
2024/03/09 10:19:34;;;;;;;21.27;16.20;;;;;;;9.33;77.01;97142.81;6331118;28;20286;-54
2024/03/09 10:22:37;;;;;;;18.80;15.63;;;;;;;9.34;76.83;97136.44;6319705;28;20358;-55
2024/03/09 10:25:41;;;;;;;20.43;16.60;;;;;;;9.25;77.41;97136.84;6330394;28;20479;-56
2024/03/09 10:28:43;;;;;;;18.20;15.13;;;;;;;9.32;77.52;97149.97;6314977;28;20324;-48
2024/03/09 10:31:50;;;;;;;20.03;15.87;;;;;;;9.30;75.97;97162.69;6336995;28;20189;-48
2024/03/09 10:34:52;;;;;;;20.00;16.17;;;;;;;9.23;76.57;97144.28;6333441;28;20190;-56
2024/03/09 10:37:55;;;;;;;20.23;14.73;;;;;;;9.33;77.35;97159.56;6333836;28;20278;-55
2024/03/09 10:40:58;;;;;;;18.37;15.27;;;;;;;9.32;75.50;97143.84;6324810;28;20213;-56
2024/03/09 10:44:01;;;;;;;18.20;14.67;;;;;;;9.29;76.28;97137.16;6327441;28;20277;-56
2024/03/09 10:47:08;;;;;;;17.37;14.47;;;;;;;9.36;76.87;97137.81;6331257;28;20668;-52
2024/03/09 10:50:16;;;;;;;18.67;15.30;;;;;;;9.23;76.35;97123.00;6331590;28;20193;-50
2024/03/09 10:54:01;;;;;;;14.83;12.90;;;;;;;9.28;76.44;97139.03;6332165;28;20186;-51
2024/03/09 10:57:10;;;;;;;16.67;13.37;;;;;;;9.39;75.59;97118.69;6328673;28;20208;-56
2024/03/09 11:00:21;;;;;;;16.07;12.60;;;;;;;9.51;74.20;97103.41;6327926;28;20213;-56
2024/03/09 11:03:23;;;;;;;15.77;12.67;;;;;;;9.66;73.74;97141.88;6329801;28;20194;-50
2024/03/09 11:06:28;;;;;;;16.60;13.60;;;;;;;9.40;74.41;97114.16;6343442;28;21018;-50
2024/03/09 11:09:31;;;;;;;16.87;13.53;;;;;;;9.51;75.35;97134.53;6336523;28;20197;-56
2024/03/09 11:12:34;;;;;;;15.93;13.10;;;;;;;9.81;76.68;97129.53;6326431;28;20190;-52
2024/03/09 11:15:37;;;;;;;17.70;13.40;;;;;;;10.20;74.64;97137.38;6331992;28;20544;-54
2024/03/09 11:18:43;;;;;;;16.13;12.93;;;;;;;10.29;71.10;97105.78;6333981;28;20301;-54
2024/03/09 11:21:48;;;;;;;14.87;12.77;;;;;;;10.17;71.14;97131.75;6335913;28;20634;-53
2024/03/09 11:24:55;;;;;;;16.17;13.67;;;;;;;9.72;73.34;97122.25;6339421;28;20568;-56
2024/03/09 11:27:57;;;;;;;17.27;13.20;;;;;;;9.45;73.58;97103.59;6321839;28;20395;-55
2024/03/09 11:31:14;;;;;;;16.47;12.90;;;;;;;9.38;74.93;97116.28;6334164;28;20192;-55
2024/03/09 11:34:21;;;;;;;19.17;14.30;;;;;;;9.48;74.91;97098.59;6324015;28;20279;-53
2024/03/09 11:37:25;;;;;;;16.77;13.40;;;;;;;9.67;74.09;97099.06;6337294;28;20200;-56
2024/03/09 11:40:35;;;;;;;16.37;12.77;;;;;;;9.54;74.27;97084.28;6332503;28;20205;-54
2024/03/09 11:43:40;;;;;;;17.87;13.87;;;;;;;9.59;75.15;97077.44;6332947;28;20187;-56
2024/03/09 11:46:42;;;;;;;16.53;13.90;;;;;;;9.45;76.30;97064.50;6331041;28;20199;-51
2024/03/09 11:49:45;;;;;;;21.13;15.87;;;;;;;9.29;75.78;97060.09;6315354;28;20196;-56
2024/03/09 11:52:47;;;;;;;20.10;15.57;;;;;;;9.42;76.72;97075.66;6337650;28;20332;-54
2024/03/09 11:55:49;;;;;;;18.00;15.13;;;;;;;9.52;76.89;97061.69;6337965;28;20197;-55
2024/03/09 11:58:52;;;;;;;22.80;17.00;;;;;;;9.36;77.96;97058.06;6342259;28;20410;-55
2024/03/09 12:02:06;;;;;;;19.83;15.63;;;;;;;9.46;77.75;97049.38;6341242;28;20662;-55
2024/03/09 12:05:17;;;;;;;19.40;15.90;;;;;;;9.27;77.52;97051.56;6329837;28;20202;-54
2024/03/09 12:08:21;;;;;;;19.07;16.17;;;;;;;9.02;77.55;97025.50;6327111;28;20186;-51
2024/03/09 12:11:25;;;;;;;22.70;16.93;;;;;;;8.90;79.33;97046.84;6332389;28;20182;-52
2024/03/09 12:14:30;;;;;;;19.63;15.30;;;;;;;8.86;80.39;97048.41;6331746;28;20271;-51
2024/03/09 12:17:33;;;;;;;19.67;15.23;;;;;;;9.01;79.81;97040.66;6328809;28;20189;-55
2024/03/09 12:20:35;;;;;;;20.37;15.67;;;;;;;9.12;77.87;97025.63;6338372;28;20808;-51
2024/03/09 12:23:39;;;;;;;19.97;15.47;;;;;;;9.40;76.25;97007.84;6340912;28;20201;-53
2024/03/09 12:26:42;;;;;;;19.10;15.07;;;;;;;10.17;76.65;97058.00;6315026;28;20197;-54
2024/03/09 12:29:44;;;;;;;18.97;14.93;;;;;;;10.42;72.72;97036.13;6324009;28;20539;-56
2024/03/09 12:32:46;;;;;;;20.47;15.33;;;;;;;10.15;72.79;97024.72;6320101;28;20987;-50
2024/03/09 12:35:49;;;;;;;16.87;13.93;;;;;;;9.83;75.38;97038.84;6330864;28;20673;-55
2024/03/09 12:38:51;;;;;;;19.77;14.97;;;;;;;9.71;75.50;97031.03;6328698;28;20225;-48
2024/03/09 12:41:54;;;;;;;19.23;15.43;;;;;;;9.74;76.61;97019.88;6332031;28;20772;-50
2024/03/09 12:44:58;;;;;;;21.10;15.20;;;;;;;9.51;75.60;97020.19;6332714;28;20442;-54
2024/03/09 12:48:04;;;;;;;20.13;15.67;;;;;;;9.01;77.25;97019.41;6312618;28;20188;-55
2024/03/09 12:51:06;;;;;;;18.00;14.60;;;;;;;8.78;79.22;96995.72;6329379;28;20203;-55
2024/03/09 12:54:10;;;;;;;17.20;14.57;;;;;;;8.83;78.82;97006.41;6330714;28;20199;-56
2024/03/09 12:57:16;;;;;;;19.87;15.83;;;;;;;8.81;79.39;97005.84;6340721;28;20320;-54
2024/03/09 13:00:20;;;;;;;20.37;15.97;;;;;;;8.65;80.23;97009.34;6337269;28;20209;-53
2024/03/09 13:03:24;;;;;;;19.83;15.87;;;;;;;8.77;80.73;97013.53;6334691;28;20269;-54
2024/03/09 13:06:28;;;;;;;22.90;17.17;;;;;;;8.68;80.57;97004.38;6331100;28;20194;-54
2024/03/09 13:09:30;;;;;;;20.23;15.77;;;;;;;8.78;81.09;97003.69;6328560;28;20190;-50
2024/03/09 13:12:35;;;;;;;22.67;15.63;;;;;;;8.81;80.86;97013.81;6328528;28;20186;-52
2024/03/09 13:15:37;;;;;;;20.97;17.10;;;;;;;8.71;82.48;97019.78;6328355;28;20190;-51
2024/03/09 13:18:40;;;;;;;21.40;16.67;;;;;;;8.60;81.94;97018.06;6330785;28;20204;-56
2024/03/09 13:21:51;;;;;;;20.77;17.07;;;;;;;8.63;82.48;97020.22;6320755;28;20237;-55
2024/03/09 13:24:59;;;;;;;21.83;17.10;;;;;;;8.50;84.07;97028.53;6329984;28;20569;-55
2024/03/09 13:28:07;;;;;;;23.23;18.73;;;;;;;8.39;82.97;97024.13;6334571;28;20216;-53
2024/03/09 13:31:11;;;;;;;21.70;16.93;;;;;;;8.34;84.50;97027.50;6334005;28;20568;-56
2024/03/09 13:34:16;;;;;;;24.73;18.67;;;;;;;8.33;84.09;97028.53;6328213;28;20199;-54
2024/03/09 13:37:22;;;;;;;26.33;19.23;;;;;;;8.19;83.97;97017.44;6323908;28;20619;-52
2024/03/09 13:40:27;;;;;;;23.07;18.27;;;;;;;8.28;85.21;97031.13;6325483;28;20931;-56
2024/03/09 13:43:30;;;;;;;24.00;18.33;;;;;;;8.20;85.58;97026.22;6332790;28;20186;-54
2024/03/09 13:46:34;;;;;;;25.13;18.90;;;;;;;8.16;85.95;97031.19;6338942;28;20200;-52
2024/03/09 13:49:39;;;;;;;26.23;18.37;;;;;;;8.19;85.40;97012.16;6314599;28;20261;-52
2024/03/09 13:52:42;;;;;;;27.43;18.93;;;;;;;8.11;85.77;97009.09;6323218;28;20198;-50
2024/03/09 13:55:44;;;;;;;23.03;18.17;;;;;;;8.09;86.63;97016.50;6314170;28;20197;-55
2024/03/09 13:58:48;;;;;;;26.13;19.10;;;;;;;8.12;86.35;97027.41;6333647;28;20528;-55
2024/03/09 14:01:50;;;;;;;25.77;18.67;;;;;;;8.07;87.05;97027.34;6329976;28;20208;-53
2024/03/09 14:04:53;;;;;;;23.90;19.00;;;;;;;8.04;86.68;97035.00;6330252;28;20190;-53
2024/03/09 14:07:56;;;;;;;27.53;18.70;;;;;;;7.97;87.22;97020.03;6329207;28;20274;-53
2024/03/09 14:10:59;;;;;;;25.20;18.07;;;;;;;7.92;87.96;97014.63;6336934;28;20672;-52